Time;durP1;ratioP1;P1;durP2;ratioP2;P2;SDS_P1;SDS_P2;PMS_P1;PMS_P2;Temp;Humidity;BMP_temperature;BMP_pressure;BME280_temperature;BME280_humidity;BME280_pressure;Samples;Min_cycle;Max_cycle;Signal;HPM_P1;HPM_P2
2023/04/22 00:01:01;;;;;;;15.95;10.57;;;;;;;9.33;100.00;100843.59;5022251;28;20029;-71
2023/04/22 00:03:27;;;;;;;15.75;9.90;;;;;;;9.34;100.00;100838.22;4996542;28;20042;-71
2023/04/22 00:05:53;;;;;;;18.02;11.48;;;;;;;9.14;100.00;100840.31;5023228;28;20132;-71
2023/04/22 00:08:19;;;;;;;16.33;11.05;;;;;;;9.21;100.00;100836.34;5024508;28;20167;-71
2023/04/22 00:10:44;;;;;;;20.45;12.13;;;;;;;9.12;100.00;100842.19;5013295;28;20034;-71
2023/04/22 00:13:10;;;;;;;16.80;11.32;;;;;;;9.16;100.00;100838.41;5010707;28;20121;-71
2023/04/22 00:15:36;;;;;;;19.05;12.93;;;;;;;9.24;100.00;100837.03;5016390;28;20021;-71
2023/04/22 00:18:02;;;;;;;19.15;12.27;;;;;;;9.17;100.00;100837.47;5025735;28;20132;-71
2023/04/22 00:20:28;;;;;;;20.35;12.85;;;;;;;9.15;100.00;100834.91;5015254;28;20038;-71
2023/04/22 00:22:53;;;;;;;20.88;12.63;;;;;;;9.15;100.00;100834.06;5019285;28;20068;-71
2023/04/22 00:25:19;;;;;;;20.52;12.65;;;;;;;9.12;100.00;100834.22;5022134;28;20045;-71
2023/04/22 00:27:45;;;;;;;28.17;16.17;;;;;;;9.12;100.00;100828.91;5025592;28;20037;-71
2023/04/22 00:30:11;;;;;;;22.92;14.30;;;;;;;9.12;100.00;100828.91;4979625;28;20788;-71
2023/04/22 00:32:37;;;;;;;26.20;14.77;;;;;;;9.18;100.00;100823.22;5022260;28;20044;-70
2023/04/22 00:35:03;;;;;;;22.83;15.00;;;;;;;9.15;100.00;100823.41;5012887;28;20077;-71
2023/04/22 00:37:28;;;;;;;27.05;15.27;;;;;;;9.10;100.00;100814.84;5005190;28;20912;-71
2023/04/22 00:39:54;;;;;;;32.40;15.77;;;;;;;9.08;100.00;100817.56;5025191;28;20052;-71
2023/04/22 00:42:20;;;;;;;23.13;13.95;;;;;;;9.08;100.00;100820.22;5012105;28;20804;-71
2023/04/22 00:44:47;;;;;;;27.42;16.70;;;;;;;8.99;100.00;100818.13;4991748;28;20053;-71
2023/04/22 00:47:12;;;;;;;25.85;16.35;;;;;;;9.07;100.00;100816.72;5010609;28;20045;-71
2023/04/22 00:49:38;;;;;;;27.50;16.95;;;;;;;9.09;100.00;100819.31;5016898;28;20769;-71
2023/04/22 00:52:04;;;;;;;27.52;16.55;;;;;;;9.05;100.00;100807.13;4985880;28;20034;-71
2023/04/22 00:54:30;;;;;;;25.08;16.15;;;;;;;9.16;100.00;100804.69;5014020;28;20545;-71
2023/04/22 00:56:57;;;;;;;27.48;17.42;;;;;;;8.98;100.00;100809.25;5015407;28;20065;-71
2023/04/22 00:59:25;;;;;;;22.67;15.18;;;;;;;9.02;100.00;100810.78;5004666;28;20915;-71
2023/04/22 01:01:51;;;;;;;25.75;16.77;;;;;;;8.89;100.00;100801.81;5003628;28;20045;-70
2023/04/22 01:04:17;;;;;;;28.55;16.63;;;;;;;8.82;100.00;100805.75;5023875;28;20029;-71
2023/04/22 01:06:44;;;;;;;28.42;17.38;;;;;;;8.80;100.00;100811.19;5008709;28;20053;-71
2023/04/22 01:09:10;;;;;;;33.83;20.95;;;;;;;8.71;100.00;100811.69;4997596;28;20069;-71
2023/04/22 01:11:35;;;;;;;34.65;20.10;;;;;;;8.78;100.00;100815.69;5014195;28;20042;-71
2023/04/22 01:14:02;;;;;;;29.08;18.25;;;;;;;8.88;100.00;100800.09;5007687;28;20058;-71
2023/04/22 01:16:30;;;;;;;34.80;20.80;;;;;;;8.94;100.00;100801.56;5022077;28;20036;-71
2023/04/22 01:18:55;;;;;;;28.02;18.30;;;;;;;8.91;100.00;100799.94;5028788;28;20041;-71
2023/04/22 01:21:23;;;;;;;27.13;17.15;;;;;;;8.87;100.00;100800.19;4998729;28;20037;-71
2023/04/22 01:23:50;;;;;;;35.47;20.92;;;;;;;8.60;100.00;100814.09;5010575;28;20042;-71
2023/04/22 01:26:15;;;;;;;29.60;17.13;;;;;;;8.64;100.00;100797.03;5029383;28;20088;-71
2023/04/22 01:28:41;;;;;;;19.02;13.65;;;;;;;8.70;100.00;100795.84;5009697;28;20857;-71
2023/04/22 01:31:07;;;;;;;114.50;20.52;;;;;;;8.68;100.00;100792.38;5015628;28;20955;-71
2023/04/22 01:33:34;;;;;;;24.52;16.42;;;;;;;8.63;100.00;100799.75;5018311;28;20196;-71
2023/04/22 01:36:00;;;;;;;35.83;21.38;;;;;;;8.71;100.00;100794.88;5010743;28;20800;-71
2023/04/22 01:38:25;;;;;;;41.10;24.88;;;;;;;8.63;100.00;100808.59;5020320;28;21001;-71
2023/04/22 01:40:51;;;;;;;35.55;22.63;;;;;;;8.73;100.00;100807.13;4993488;28;20044;-71
2023/04/22 01:43:17;;;;;;;41.53;24.63;;;;;;;8.57;100.00;100800.97;5018719;28;20744;-71
2023/04/22 01:45:42;;;;;;;39.05;23.52;;;;;;;8.75;100.00;100797.28;5019058;28;20053;-71
2023/04/22 01:48:08;;;;;;;44.22;21.42;;;;;;;8.71;100.00;100786.91;5006802;28;20040;-71
2023/04/22 01:50:34;;;;;;;39.58;22.58;;;;;;;8.69;100.00;100781.69;5000328;28;20049;-71
2023/04/22 01:52:59;;;;;;;34.58;20.63;;;;;;;8.68;100.00;100793.25;5004983;28;20065;-71
2023/04/22 01:55:25;;;;;;;45.80;27.00;;;;;;;8.54;100.00;100802.00;5008718;28;20037;-71
2023/04/22 01:57:51;;;;;;;47.97;26.33;;;;;;;8.64;100.00;100804.16;5026453;28;20103;-71
2023/04/22 02:00:17;;;;;;;47.13;25.13;;;;;;;8.67;100.00;100807.47;5012864;28;20116;-71
2023/04/22 02:02:46;;;;;;;45.83;27.08;;;;;;;8.73;100.00;100796.50;5022166;28;20045;-71
2023/04/22 02:05:11;;;;;;;46.60;27.42;;;;;;;8.69;100.00;100791.47;5021327;28;20114;-71
2023/04/22 02:07:37;;;;;;;44.92;27.85;;;;;;;8.64;100.00;100796.19;5000358;28;20117;-71
2023/04/22 02:10:04;;;;;;;140.32;30.13;;;;;;;8.34;100.00;100796.91;5011084;28;20034;-71
2023/04/22 02:12:31;;;;;;;37.58;22.38;;;;;;;8.51;100.00;100798.66;5005652;28;20310;-71
2023/04/22 02:14:57;;;;;;;51.05;27.05;;;;;;;8.53;100.00;100789.66;5011675;28;20238;-71
2023/04/22 02:17:24;;;;;;;48.03;25.67;;;;;;;8.48;100.00;100804.13;5002442;28;20156;-71
2023/04/22 02:19:50;;;;;;;41.83;23.77;;;;;;;8.63;100.00;100794.44;5022475;28;20028;-71
2023/04/22 02:22:16;;;;;;;45.85;27.35;;;;;;;8.53;100.00;100804.72;5020913;28;20025;-71
2023/04/22 02:24:42;;;;;;;53.13;29.45;;;;;;;8.60;100.00;100803.47;5016061;28;20076;-71
2023/04/22 02:27:08;;;;;;;54.17;29.85;;;;;;;8.56;100.00;100805.44;5021184;28;20033;-71
2023/04/22 02:29:33;;;;;;;58.15;32.03;;;;;;;8.68;100.00;100803.03;5014184;28;20041;-71
2023/04/22 02:31:59;;;;;;;57.33;30.35;;;;;;;8.66;100.00;100805.78;5009259;28;20157;-71
2023/04/22 02:34:25;;;;;;;50.42;31.13;;;;;;;8.65;100.00;100800.56;5009303;28;20033;-71
2023/04/22 02:36:52;;;;;;;51.67;27.60;;;;;;;8.72;100.00;100791.28;5003659;28;20095;-71
2023/04/22 02:39:18;;;;;;;49.60;30.33;;;;;;;8.71;100.00;100786.91;5009224;28;20037;-71
2023/04/22 02:41:44;;;;;;;49.90;31.17;;;;;;;8.69;100.00;100784.34;5022053;28;20034;-71
2023/04/22 02:44:10;;;;;;;46.22;28.40;;;;;;;8.82;100.00;100784.50;5009030;28;20026;-70
2023/04/22 02:46:36;;;;;;;51.25;29.85;;;;;;;8.87;100.00;100777.09;5007257;28;20884;-71
2023/04/22 02:49:02;;;;;;;55.40;31.73;;;;;;;8.53;100.00;100771.06;5024287;28;20048;-71
2023/04/22 02:51:27;;;;;;;51.95;29.75;;;;;;;8.64;100.00;100765.13;4978543;28;20909;-71
2023/04/22 02:53:53;;;;;;;53.35;30.40;;;;;;;8.76;100.00;100766.25;5004438;28;20033;-71
2023/04/22 02:56:20;;;;;;;58.05;33.15;;;;;;;8.67;100.00;100766.75;4999585;28;21220;-71
2023/04/22 02:58:45;;;;;;;58.20;33.17;;;;;;;8.77;100.00;100770.59;5010102;28;20029;-71
2023/04/22 03:01:12;;;;;;;59.00;34.15;;;;;;;8.81;100.00;100761.50;5028222;28;20711;-71
2023/04/22 03:03:38;;;;;;;61.20;33.50;;;;;;;8.89;100.00;100758.44;5007545;28;20068;-71
2023/04/22 03:06:06;;;;;;;54.63;31.48;;;;;;;8.92;100.00;100759.09;5004661;28;21214;-70
2023/04/22 03:08:32;;;;;;;54.67;30.80;;;;;;;8.97;100.00;100751.69;4995436;28;20891;-71
2023/04/22 03:10:57;;;;;;;48.17;29.90;;;;;;;9.01;100.00;100747.91;5029360;28;20037;-71
2023/04/22 03:13:23;;;;;;;58.22;31.20;;;;;;;8.97;100.00;100748.19;4998659;28;20026;-70
2023/04/22 03:15:49;;;;;;;50.75;30.83;;;;;;;8.98;100.00;100747.22;5024676;28;20034;-70
2023/04/22 03:18:15;;;;;;;52.85;32.15;;;;;;;8.95;100.00;100739.44;5000530;28;20046;-70
2023/04/22 03:20:41;;;;;;;52.85;31.70;;;;;;;8.99;100.00;100748.97;5020037;28;20108;-71
2023/04/22 03:23:07;;;;;;;49.45;30.05;;;;;;;9.04;100.00;100742.44;5011866;28;20033;-70
2023/04/22 03:25:35;;;;;;;52.15;30.58;;;;;;;9.03;100.00;100731.84;5012403;28;20042;-70
2023/04/22 03:28:02;;;;;;;58.22;33.42;;;;;;;9.03;100.00;100731.84;5024855;28;20045;-71
2023/04/22 03:30:27;;;;;;;64.13;35.03;;;;;;;8.97;100.00;100730.41;5028091;28;20137;-70
2023/04/22 03:32:53;;;;;;;55.67;32.17;;;;;;;9.00;100.00;100729.41;5010458;28;20045;-70
2023/04/22 03:35:28;;;;;;;57.47;33.83;;;;;;;9.00;100.00;100729.41;5009172;28;20037;-70
2023/04/22 03:37:57;;;;;;;55.70;32.50;;;;;;;9.09;100.00;100715.56;5009060;28;20140;-71
2023/04/22 03:40:28;;;;;;;60.88;34.38;;;;;;;9.07;100.00;100712.97;5011050;28;20041;-71
2023/04/22 03:42:53;;;;;;;59.85;34.15;;;;;;;9.07;100.00;100720.09;5031279;28;20565;-71
2023/04/22 03:45:20;;;;;;;66.95;36.28;;;;;;;9.05;100.00;100722.00;5012448;28;20128;-71
2023/04/22 03:47:53;;;;;;;66.63;36.38;;;;;;;9.06;100.00;100718.41;5014110;28;20112;-70
2023/04/22 03:50:25;;;;;;;66.82;37.38;;;;;;;9.04;100.00;100713.19;5002751;28;20061;-70
2023/04/22 03:52:51;;;;;;;71.38;38.75;;;;;;;9.07;100.00;100715.63;4998776;28;20034;-70
2023/04/22 03:55:19;;;;;;;71.57;35.97;;;;;;;9.09;100.00;100715.56;5013226;28;20037;-70
2023/04/22 03:57:46;;;;;;;69.18;36.13;;;;;;;9.07;100.00;100712.13;4996656;28;20052;-71
2023/04/22 04:00:13;;;;;;;71.18;38.13;;;;;;;9.09;100.00;100704.94;5006318;28;20061;-70
2023/04/22 04:02:47;;;;;;;60.22;35.05;;;;;;;9.05;100.00;100709.56;4999789;28;20856;-71
2023/04/22 04:05:16;;;;;;;57.25;33.20;;;;;;;9.04;100.00;100701.69;5011507;28;20048;-70
2023/04/22 04:07:44;;;;;;;50.42;31.10;;;;;;;9.06;100.00;100707.75;4998847;28;20038;-71
2023/04/22 04:10:11;;;;;;;51.03;31.27;;;;;;;9.00;100.00;100701.00;5011250;28;20048;-70
2023/04/22 04:12:36;;;;;;;61.20;33.63;;;;;;;8.97;100.00;100698.50;5011934;28;20827;-70
2023/04/22 04:15:02;;;;;;;55.75;32.60;;;;;;;8.97;100.00;100703.81;5009121;28;20040;-71
2023/04/22 04:17:29;;;;;;;55.55;32.38;;;;;;;8.97;100.00;100700.31;5009137;28;20041;-71
2023/04/22 04:19:55;;;;;;;58.28;33.65;;;;;;;9.02;100.00;100704.41;5010671;28;20077;-70
2023/04/22 04:22:21;;;;;;;55.15;31.50;;;;;;;9.03;100.00;100705.25;5010189;28;20041;-70
2023/04/22 04:24:54;;;;;;;62.15;33.70;;;;;;;8.98;100.00;100697.56;5012845;28;20041;-70
2023/04/22 04:27:23;;;;;;;51.08;31.70;;;;;;;8.97;100.00;100695.84;5005949;28;20041;-71
2023/04/22 04:29:52;;;;;;;52.67;31.15;;;;;;;9.00;100.00;100694.81;5011416;28;20679;-70
2023/04/22 04:32:33;;;;;;;50.15;30.42;;;;;;;9.01;100.00;100694.72;5011447;28;20106;-70
2023/04/22 04:35:01;;;;;;;53.88;31.60;;;;;;;8.94;100.00;100692.53;5012410;28;20056;-70
2023/04/22 04:37:26;;;;;;;63.03;35.38;;;;;;;8.94;100.00;100684.56;5020340;28;21101;-70
2023/04/22 04:39:58;;;;;;;70.50;39.97;;;;;;;8.93;100.00;100688.13;5009218;28;20081;-71
2023/04/22 04:42:26;;;;;;;76.03;42.80;;;;;;;8.97;100.00;100684.34;5003222;28;20096;-70
2023/04/22 04:44:59;;;;;;;65.00;39.22;;;;;;;9.03;100.00;100687.50;5001407;28;20056;-70
2023/04/22 04:47:27;;;;;;;63.70;38.05;;;;;;;9.03;100.00;100695.47;5010094;28;20152;-70
2023/04/22 04:49:57;;;;;;;61.53;37.55;;;;;;;9.06;100.00;100679.34;4995809;28;20045;-70
2023/04/22 04:52:23;;;;;;;70.78;40.20;;;;;;;9.06;100.00;100673.19;5029982;28;20605;-71
2023/04/22 04:54:51;;;;;;;64.97;37.72;;;;;;;9.13;100.00;100682.50;5009833;28;20096;-70
2023/04/22 04:57:17;;;;;;;68.15;38.90;;;;;;;9.15;100.00;100675.28;5008086;28;20551;-70
2023/04/22 04:59:42;;;;;;;61.10;33.53;;;;;;;9.21;100.00;100677.56;5011660;28;20034;-70
2023/04/22 05:02:09;;;;;;;57.70;35.28;;;;;;;9.23;100.00;100677.47;5012450;28;20243;-70
2023/04/22 05:04:35;;;;;;;62.72;35.90;;;;;;;9.27;100.00;100677.19;4990667;28;20087;-72
2023/04/22 05:07:00;;;;;;;57.33;35.60;;;;;;;9.29;100.00;100680.63;4993154;28;20400;-70
2023/04/22 05:09:27;;;;;;;58.88;35.33;;;;;;;9.27;100.00;100682.53;4994979;28;20806;-70
2023/04/22 05:11:53;;;;;;;60.97;36.42;;;;;;;9.29;100.00;100675.31;5014839;28;20033;-72
2023/04/22 05:14:20;;;;;;;55.13;34.17;;;;;;;9.29;100.00;100671.81;4996124;28;20030;-70
2023/04/22 05:16:46;;;;;;;57.03;34.17;;;;;;;9.33;100.00;100679.47;5022798;28;20044;-70
2023/04/22 05:19:13;;;;;;;55.15;32.20;;;;;;;9.36;100.00;100681.13;5024502;28;20026;-72
2023/04/22 05:21:38;;;;;;;63.88;34.83;;;;;;;9.40;100.00;100679.13;5017626;28;20082;-70
2023/04/22 05:24:04;;;;;;;51.38;32.10;;;;;;;9.38;100.00;100676.53;5012140;28;20170;-70
2023/04/22 05:26:30;;;;;;;47.45;29.52;;;;;;;9.44;100.00;100676.19;5009672;28;20037;-70
2023/04/22 05:28:55;;;;;;;54.60;33.45;;;;;;;9.48;100.00;100669.69;5023235;28;20864;-70
2023/04/22 05:31:21;;;;;;;68.90;36.35;;;;;;;9.51;100.00;100676.66;4995316;28;20064;-72
2023/04/22 05:33:47;;;;;;;60.60;34.20;;;;;;;9.59;100.00;100682.38;4999773;28;20450;-70
2023/04/22 05:36:13;;;;;;;48.65;31.67;;;;;;;9.57;100.00;100678.94;5010029;28;20025;-70
2023/04/22 05:38:38;;;;;;;55.38;33.15;;;;;;;9.67;100.00;100680.06;5004570;28;20034;-70
2023/04/22 05:41:04;;;;;;;57.33;33.75;;;;;;;9.67;100.00;100680.06;5005893;28;20315;-70
2023/04/22 05:43:30;;;;;;;55.08;32.50;;;;;;;9.77;100.00;100672.38;4980764;28;20033;-70
2023/04/22 05:46:07;;;;;;;58.22;34.78;;;;;;;9.79;100.00;100674.00;5012503;28;20052;-70
2023/04/22 05:48:35;;;;;;;54.38;33.20;;;;;;;9.80;100.00;100669.53;5001935;28;20042;-72
2023/04/22 05:51:05;;;;;;;52.13;31.48;;;;;;;9.88;100.00;100667.22;4998833;28;20049;-72
2023/04/22 05:53:31;;;;;;;56.65;33.85;;;;;;;9.92;100.00;100668.75;5005547;28;20046;-72
2023/04/22 05:55:59;;;;;;;58.75;34.80;;;;;;;9.97;100.00;100665.78;4993255;28;20140;-72
2023/04/22 05:58:24;;;;;;;54.30;32.42;;;;;;;10.05;100.00;100671.50;5008786;28;20105;-72
2023/04/22 06:00:52;;;;;;;63.15;34.78;;;;;;;10.12;100.00;100670.13;5011491;28;20794;-71
2023/04/22 06:03:40;;;;;;;54.13;32.78;;;;;;;10.12;100.00;100676.31;5007945;28;20501;-72
2023/04/22 06:06:07;;;;;;;62.75;34.67;;;;;;;10.16;100.00;100663.66;5025945;28;20049;-72
2023/04/22 06:08:32;;;;;;;59.35;33.92;;;;;;;10.06;100.00;100660.72;5016559;28;20033;-72
2023/04/22 06:10:58;;;;;;;51.85;31.92;;;;;;;10.13;100.00;100667.34;5018031;28;20113;-71
2023/04/22 06:13:26;;;;;;;61.25;35.55;;;;;;;10.33;100.00;100670.59;5007701;28;20035;-72
2023/04/22 06:15:52;;;;;;;53.55;32.75;;;;;;;10.48;100.00;100669.56;5022229;28;20049;-71
2023/04/22 06:18:18;;;;;;;60.10;35.25;;;;;;;10.67;100.00;100666.56;5024590;28;20108;-72
2023/04/22 06:20:43;;;;;;;52.45;33.60;;;;;;;10.81;100.00;100665.63;5004785;28;20040;-72
2023/04/22 06:23:09;;;;;;;62.92;36.72;;;;;;;10.95;100.00;100670.91;5009901;28;20033;-72
2023/04/22 06:25:35;;;;;;;51.22;31.52;;;;;;;11.09;100.00;100675.28;5007667;28;20052;-71
2023/04/22 06:28:00;;;;;;;49.30;30.88;;;;;;;11.27;100.00;100666.03;5004944;28;20037;-72
2023/04/22 06:30:26;;;;;;;42.30;28.23;;;;;;;11.43;100.00;100668.47;5009855;28;20148;-72
2023/04/22 06:32:53;;;;;;;51.08;32.78;;;;;;;11.64;100.00;100661.63;5018799;28;20033;-72
2023/04/22 06:35:20;;;;;;;50.03;30.55;;;;;;;11.89;100.00;100655.41;5023004;28;20048;-70
2023/04/22 06:37:47;;;;;;;47.13;30.70;;;;;;;12.17;100.00;100646.25;5009718;28;20164;-70
2023/04/22 06:40:14;;;;;;;47.75;29.20;;;;;;;12.39;100.00;100644.66;5009015;28;20057;-72
2023/04/22 06:43:18;;;;;;;35.28;23.92;;;;;;;12.62;100.00;100646.50;4988703;28;20049;-72
2023/04/22 06:46:04;;;;;;;42.45;25.90;;;;;;;12.70;100.00;100641.44;5023662;28;20065;-72
2023/04/22 06:48:49;;;;;;;32.65;21.67;;;;;;;12.46;100.00;100637.91;5027005;28;20073;-72
2023/04/22 06:51:22;;;;;;;37.47;23.50;;;;;;;12.54;100.00;100643.53;5000450;28;20141;-72
2023/04/22 06:53:49;;;;;;;35.30;23.25;;;;;;;12.33;100.00;100629.94;5015796;28;20034;-72
2023/04/22 06:56:15;;;;;;;32.10;22.52;;;;;;;12.78;100.00;100640.00;5021034;28;20566;-72
2023/04/22 06:58:40;;;;;;;29.65;18.98;;;;;;;12.94;100.00;100625.31;5015679;28;20028;-70
2023/04/22 07:01:07;;;;;;;27.15;18.17;;;;;;;13.21;100.00;100627.72;5011935;28;20514;-72
2023/04/22 07:03:33;;;;;;;24.88;17.20;;;;;;;13.20;100.00;100617.97;5009671;28;20710;-72
2023/04/22 07:06:04;;;;;;;27.77;16.60;;;;;;;13.15;100.00;100608.56;5006281;28;20105;-72
2023/04/22 07:08:31;;;;;;;21.50;14.30;;;;;;;13.39;100.00;100608.50;5020114;28;20042;-72
2023/04/22 07:10:57;;;;;;;22.60;14.80;;;;;;;13.58;100.00;100602.53;5003183;28;20084;-72
2023/04/22 07:13:41;;;;;;;23.25;14.02;;;;;;;13.92;100.00;100598.00;5006739;28;20843;-72
2023/04/22 07:16:07;;;;;;;19.45;13.77;;;;;;;14.32;100.00;100605.47;5018903;28;20038;-72
2023/04/22 07:18:34;;;;;;;21.23;13.75;;;;;;;14.30;100.00;100605.56;5020289;28;20030;-72
2023/04/22 07:21:00;;;;;;;22.60;13.50;;;;;;;14.47;100.00;100601.50;4990408;28;20129;-72
2023/04/22 07:23:26;;;;;;;17.90;12.60;;;;;;;14.70;100.00;100599.59;4994113;28;20717;-72
2023/04/22 07:25:52;;;;;;;21.38;13.68;;;;;;;14.95;100.00;100587.59;5015183;28;20049;-72
2023/04/22 07:28:17;;;;;;;17.75;11.75;;;;;;;14.68;100.00;100588.13;5019904;28;20521;-72
2023/04/22 07:30:43;;;;;;;18.10;11.43;;;;;;;15.07;100.00;100588.41;5012423;28;20599;-72
2023/04/22 07:33:09;;;;;;;17.63;12.32;;;;;;;15.65;100.00;100586.00;5015542;28;20063;-72
2023/04/22 07:35:36;;;;;;;15.90;10.85;;;;;;;15.70;100.00;100567.63;5004882;28;20506;-72
2023/04/22 07:38:02;;;;;;;16.08;10.75;;;;;;;15.72;100.00;100563.84;5001356;28;20494;-72
2023/04/22 07:40:28;;;;;;;16.45;10.95;;;;;;;15.05;100.00;100566.19;5011998;28;20034;-72
2023/04/22 07:42:53;;;;;;;15.65;10.52;;;;;;;15.48;100.00;100574.88;5006369;28;20040;-72
2023/04/22 07:45:19;;;;;;;15.30;11.80;;;;;;;15.94;100.00;100567.28;5003930;28;20141;-70
2023/04/22 07:47:44;;;;;;;16.55;11.32;;;;;;;16.03;100.00;100561.91;5014099;28;20091;-72
2023/04/22 07:50:10;;;;;;;13.85;10.52;;;;;;;15.88;100.00;100566.00;5018439;28;20041;-72
2023/04/22 07:52:36;;;;;;;15.77;9.73;;;;;;;15.96;100.00;100555.38;5013999;28;20449;-70
2023/04/22 07:55:02;;;;;;;14.77;10.98;;;;;;;16.33;100.00;100572.72;5009750;28;20557;-72
2023/04/22 07:57:29;;;;;;;12.13;10.00;;;;;;;16.29;100.00;100570.28;5028213;28;20034;-72
2023/04/22 07:59:54;;;;;;;21.45;10.90;;;;;;;16.57;100.00;100576.69;5013525;28;20033;-72
2023/04/22 08:02:20;;;;;;;18.42;12.43;;;;;;;17.02;100.00;100575.22;5029862;28;20037;-72
2023/04/22 08:04:46;;;;;;;15.35;10.38;;;;;;;16.87;100.00;100574.84;5023531;28;20036;-72
2023/04/22 08:07:15;;;;;;;15.90;11.30;;;;;;;16.61;100.00;100569.16;5001587;28;20048;-72
2023/04/22 08:09:40;;;;;;;19.98;11.00;;;;;;;17.06;100.00;100576.63;4992015;28;20046;-72
2023/04/22 08:12:09;;;;;;;18.45;11.25;;;;;;;17.24;100.00;100572.19;5024325;28;20490;-72
2023/04/22 08:14:35;;;;;;;15.48;11.00;;;;;;;17.18;100.00;100572.78;5006688;28;20519;-72
2023/04/22 08:17:02;;;;;;;17.98;11.23;;;;;;;17.20;100.00;100576.16;5022377;28;20040;-72
2023/04/22 08:19:28;;;;;;;13.93;9.82;;;;;;;17.56;100.00;100570.91;5024787;28;20060;-71
2023/04/22 08:21:54;;;;;;;16.65;10.48;;;;;;;17.57;100.00;100573.47;5024257;28;20046;-70
2023/04/22 08:24:19;;;;;;;16.58;10.70;;;;;;;17.58;100.00;100577.03;5022760;28;20044;-72
2023/04/22 08:26:45;;;;;;;16.25;10.82;;;;;;;17.44;100.00;100590.97;5027415;28;20049;-72
2023/04/22 08:29:11;;;;;;;15.02;10.70;;;;;;;17.75;100.00;100587.03;5016043;28;20034;-72
2023/04/22 08:31:37;;;;;;;15.55;10.85;;;;;;;18.02;100.00;100582.63;5025336;28;20041;-70
2023/04/22 08:34:03;;;;;;;13.32;10.68;;;;;;;17.77;100.00;100563.47;5017427;28;20065;-72
2023/04/22 08:36:30;;;;;;;16.95;11.25;;;;;;;17.88;100.00;100548.94;5023492;28;20669;-69
2023/04/22 08:38:56;;;;;;;19.70;11.38;;;;;;;18.24;100.00;100544.41;5017618;28;20570;-72
2023/04/22 08:41:25;;;;;;;20.65;11.35;;;;;;;17.90;99.28;100544.22;5023412;28;20044;-70
2023/04/22 08:43:52;;;;;;;16.35;10.43;;;;;;;17.47;99.46;100542.16;5019668;28;20203;-72
2023/04/22 08:46:22;;;;;;;16.00;10.30;;;;;;;17.67;100.00;100549.16;5016454;28;20049;-70
2023/04/22 08:48:50;;;;;;;13.97;10.10;;;;;;;17.77;100.00;100541.03;5000447;28;20660;-72
2023/04/22 08:51:17;;;;;;;16.08;10.43;;;;;;;17.31;100.00;100538.25;5016638;28;20084;-72
2023/04/22 08:53:44;;;;;;;15.75;10.80;;;;;;;17.85;100.00;100536.56;5001445;28;20042;-70
2023/04/22 08:56:12;;;;;;;14.95;10.30;;;;;;;18.00;100.00;100534.22;5021508;28;20034;-70
2023/04/22 08:58:41;;;;;;;13.85;10.52;;;;;;;18.21;100.00;100533.91;5019454;28;20542;-72
2023/04/22 09:01:08;;;;;;;15.07;10.13;;;;;;;18.46;100.00;100524.16;5016669;28;20052;-70
2023/04/22 09:03:36;;;;;;;19.00;11.60;;;;;;;18.53;96.54;100519.03;5003814;28;20037;-72
2023/04/22 09:06:05;;;;;;;18.23;9.95;;;;;;;18.59;98.70;100524.63;5011924;28;20640;-72
2023/04/22 09:08:31;;;;;;;14.55;9.93;;;;;;;18.46;93.40;100518.78;5014250;28;20098;-72
2023/04/22 09:10:58;;;;;;;12.23;8.77;;;;;;;18.96;95.15;100518.16;5017542;28;20036;-72
2023/04/22 09:13:25;;;;;;;12.80;9.73;;;;;;;19.23;93.54;100510.88;5005353;28;20042;-69
2023/04/22 09:15:51;;;;;;;15.75;8.63;;;;;;;19.13;93.09;100513.72;5025721;28;20139;-69
2023/04/22 09:18:20;;;;;;;10.85;9.02;;;;;;;18.57;90.85;100509.56;5011378;28;20034;-69
2023/04/22 09:20:47;;;;;;;10.20;8.68;;;;;;;18.89;89.95;100514.41;5011260;28;20080;-72
2023/04/22 09:23:13;;;;;;;9.68;8.18;;;;;;;18.69;93.85;100516.47;4995266;28;20030;-70
2023/04/22 09:25:39;;;;;;;10.48;7.68;;;;;;;19.39;91.23;100500.16;5018518;28;20038;-71
2023/04/22 09:28:10;;;;;;;9.75;7.93;;;;;;;19.55;85.30;100499.34;5013882;28;20072;-71
2023/04/22 09:30:36;;;;;;;10.23;8.57;;;;;;;19.19;86.51;100504.94;5022491;28;20054;-69
2023/04/22 09:33:04;;;;;;;9.68;7.93;;;;;;;19.14;85.75;100499.19;5022768;28;20052;-70
2023/04/22 09:35:35;;;;;;;13.43;8.55;;;;;;;18.86;83.27;100502.06;5001667;28;20034;-70
2023/04/22 09:38:03;;;;;;;9.95;8.07;;;;;;;18.98;85.01;100505.34;5015558;28;20033;-70
2023/04/22 09:40:31;;;;;;;11.40;8.60;;;;;;;19.37;87.98;100499.44;5025005;28;20026;-69
2023/04/22 09:42:59;;;;;;;11.80;9.27;;;;;;;19.36;84.96;100493.19;5016929;28;20037;-70
2023/04/22 09:45:36;;;;;;;10.80;8.55;;;;;;;19.19;81.60;100496.00;5027304;28;20961;-70
2023/04/22 09:48:07;;;;;;;9.70;8.00;;;;;;;19.42;84.95;100488.97;5002696;28;20026;-70
2023/04/22 09:50:33;;;;;;;13.43;9.47;;;;;;;19.62;83.08;100486.88;5007141;28;20193;-70
2023/04/22 09:53:05;;;;;;;11.80;7.95;;;;;;;19.50;84.94;100488.19;5023900;28;20044;-70
2023/04/22 09:55:36;;;;;;;11.07;8.40;;;;;;;19.51;85.29;100489.88;5012040;28;20137;-70
2023/04/22 09:58:26;;;;;;;11.68;8.15;;;;;;;19.25;82.82;100487.22;5020618;28;20034;-70
2023/04/22 10:00:56;;;;;;;9.23;8.13;;;;;;;19.57;85.00;100481.09;5001954;28;20041;-70
2023/04/22 10:03:22;;;;;;;10.57;8.18;;;;;;;19.79;86.95;100482.38;5021913;28;20037;-70
2023/04/22 10:05:48;;;;;;;10.90;8.13;;;;;;;20.05;85.88;100487.66;5027048;28;20044;-72
2023/04/22 10:08:15;;;;;;;10.90;7.65;;;;;;;19.12;84.67;100502.03;5016453;28;20033;-72
2023/04/22 10:10:41;;;;;;;10.48;8.55;;;;;;;18.81;84.68;100493.56;5022100;28;20038;-72
2023/04/22 10:13:07;;;;;;;11.93;8.20;;;;;;;18.85;82.40;100497.66;5014927;28;20757;-71
2023/04/22 10:15:36;;;;;;;9.90;7.75;;;;;;;18.43;84.78;100494.81;5011147;28;20034;-71
2023/04/22 10:18:05;;;;;;;10.38;8.15;;;;;;;18.99;87.47;100498.09;5007682;28;20037;-71
2023/04/22 10:20:36;;;;;;;11.70;8.32;;;;;;;19.49;82.95;100491.91;4971060;28;20034;-71
2023/04/22 10:23:04;;;;;;;11.93;8.65;;;;;;;19.87;81.90;100483.22;5013605;28;20085;-71
2023/04/22 10:25:31;;;;;;;12.82;8.63;;;;;;;20.32;80.98;100483.78;4995649;28;20042;-71
2023/04/22 10:28:08;;;;;;;12.23;8.40;;;;;;;20.54;83.31;100468.75;5018466;28;20041;-71
2023/04/22 10:30:36;;;;;;;12.38;8.95;;;;;;;20.02;78.74;100477.16;5007135;28;20096;-71
2023/04/22 10:33:20;;;;;;;11.15;8.65;;;;;;;19.57;78.33;100456.75;5019334;28;20038;-71
2023/04/22 10:36:08;;;;;;;11.75;9.27;;;;;;;20.25;79.70;100461.97;5017855;28;20030;-71
2023/04/22 10:38:39;;;;;;;13.38;9.40;;;;;;;20.35;79.92;100459.09;5014580;28;20048;-71
2023/04/22 10:41:06;;;;;;;13.95;9.02;;;;;;;20.27;81.06;100457.22;5016333;28;20029;-71
2023/04/22 10:43:45;;;;;;;11.82;8.75;;;;;;;19.72;83.16;100460.53;5016925;28;20034;-71
2023/04/22 10:46:30;;;;;;;10.02;8.30;;;;;;;19.78;79.62;100465.31;5000728;28;20315;-71
2023/04/22 10:48:56;;;;;;;10.27;7.40;;;;;;;20.39;80.79;100469.41;5006798;28;20044;-71
2023/04/22 10:51:45;;;;;;;11.73;8.15;;;;;;;20.02;80.29;100469.03;5025925;28;20064;-71
2023/04/22 10:54:26;;;;;;;10.68;8.38;;;;;;;20.50;78.26;100479.09;5014284;28;20081;-71
2023/04/22 10:57:09;;;;;;;11.35;7.82;;;;;;;20.69;77.04;100475.16;5013149;28;20039;-71
2023/04/22 10:59:51;;;;;;;12.18;9.20;;;;;;;20.16;74.90;100471.09;5014472;28;20044;-71
2023/04/22 11:02:18;;;;;;;11.05;7.85;;;;;;;20.05;81.86;100477.69;5011517;28;20114;-71
2023/04/22 11:04:45;;;;;;;11.63;7.57;;;;;;;20.27;79.25;100472.63;5016051;28;20137;-71
2023/04/22 11:07:21;;;;;;;10.05;7.70;;;;;;;20.80;81.08;100479.38;5011825;28;21336;-71
2023/04/22 11:09:52;;;;;;;14.43;8.25;;;;;;;20.94;80.43;100468.69;5014348;28;20644;-71
2023/04/22 11:12:40;;;;;;;10.32;7.75;;;;;;;20.50;77.37;100467.41;5014348;28;20481;-71